createdAt,value
2022-09-13T00:01:14.713Z,2.72
2022-09-13T00:03:43.055Z,3.03
2022-09-13T00:06:17.671Z,3.17
2022-09-13T00:08:46.623Z,2.85
2022-09-13T00:11:22.086Z,2.85
2022-09-13T00:13:52.756Z,2.95
2022-09-13T00:16:22.876Z,2.85
2022-09-13T00:18:51.785Z,2.70
2022-09-13T00:21:22.292Z,2.53
2022-09-13T00:23:53.774Z,3.05
2022-09-13T00:26:26.269Z,2.70
2022-09-13T00:28:58.978Z,3.00
2022-09-13T00:31:28.769Z,2.90
2022-09-13T00:33:59.898Z,3.50
2022-09-13T00:36:28.281Z,2.72
2022-09-13T00:38:55.962Z,3.72
2022-09-13T00:41:23.605Z,3.65
2022-09-13T00:44:01.032Z,3.10
2022-09-13T00:46:34.358Z,2.67
2022-09-13T00:49:31.864Z,2.83
2022-09-13T00:52:05.590Z,2.80
2022-09-13T00:54:40.859Z,3.03
2022-09-13T00:57:11.652Z,2.83
2022-09-13T01:00:12.045Z,3.55
2022-09-13T01:02:58.567Z,3.50
2022-09-13T01:05:36.017Z,3.67
2022-09-13T01:08:12.744Z,3.15
2022-09-13T01:10:41.870Z,3.45
2022-09-13T01:13:21.367Z,3.20
2022-09-13T01:15:49.875Z,3.35
2022-09-13T01:18:17.931Z,3.95
2022-09-13T01:21:13.277Z,3.20
2022-09-13T01:24:16.061Z,3.85
2022-09-13T01:27:13.570Z,4.70
2022-09-13T01:30:11.688Z,3.50
2022-09-13T01:33:12.530Z,3.72
2022-09-13T01:35:51.903Z,3.40
2022-09-13T01:39:10.547Z,4.32
2022-09-13T01:42:17.701Z,3.15
2022-09-13T01:44:55.709Z,4.07
2022-09-13T01:47:32.933Z,4.07
2022-09-13T01:50:42.380Z,3.92
2022-09-13T01:53:46.459Z,3.20
2022-09-13T01:57:09.098Z,4.38
2022-09-13T02:00:12.171Z,4.90
2022-09-13T02:03:33.339Z,4.43
2022-09-13T02:06:12.901Z,4.10
2022-09-13T02:08:51.987Z,3.67
2022-09-13T02:11:23.074Z,3.75
2022-09-13T02:14:11.555Z,4.07
2022-09-13T02:16:47.391Z,3.80
2022-09-13T02:19:28.791Z,4.13
2022-09-13T02:22:01.031Z,4.30
2022-09-13T02:24:40.850Z,3.97
2022-09-13T02:27:16.746Z,3.17
2022-09-13T02:29:47.853Z,3.50
2022-09-13T02:32:23.052Z,4.13
2022-09-13T02:35:14.603Z,4.60
2022-09-13T02:37:48.694Z,4.38
2022-09-13T02:40:25.175Z,3.90
2022-09-13T02:43:33.623Z,4.10
2022-09-13T02:46:22.518Z,4.03
2022-09-13T02:49:11.199Z,3.58
2022-09-13T02:52:00.954Z,3.90
2022-09-13T02:54:43.818Z,4.07
2022-09-13T02:57:31.345Z,3.80
2022-09-13T03:00:00.103Z,3.92
2022-09-13T03:02:33.489Z,3.70
2022-09-13T03:05:03.981Z,3.80
2022-09-13T03:07:31.483Z,4.60
2022-09-13T03:10:08.117Z,4.28
2022-09-13T03:13:03.190Z,3.88
2022-09-13T03:16:28.125Z,4.72
2022-09-13T03:20:04.887Z,4.55
2022-09-13T03:22:50.022Z,3.20
2022-09-13T03:25:54.173Z,4.15
2022-09-13T03:29:00.509Z,5.55
2022-09-13T03:31:54.425Z,4.85
2022-09-13T03:34:29.313Z,4.60
2022-09-13T03:37:19.262Z,4.18
2022-09-13T03:40:09.912Z,5.28
2022-09-13T03:42:48.217Z,5.20
2022-09-13T03:45:21.355Z,4.85
2022-09-13T03:47:51.071Z,4.88
2022-09-13T03:52:58.634Z,5.07
2022-09-13T03:55:27.164Z,5.30
2022-09-13T03:57:54.679Z,5.13
2022-09-13T04:00:22.564Z,4.25
2022-09-13T04:02:51.093Z,5.07
2022-09-13T04:05:18.648Z,4.68
2022-09-13T04:07:46.194Z,5.38
2022-09-13T04:10:14.293Z,5.10
2022-09-13T04:12:41.771Z,5.13
2022-09-13T04:15:10.057Z,4.97
2022-09-13T04:17:37.914Z,5.20
2022-09-13T04:20:05.924Z,6.10
2022-09-13T04:22:33.640Z,5.22
2022-09-13T04:25:02.639Z,5.03
2022-09-13T04:27:30.285Z,4.70
2022-09-13T04:29:57.824Z,6.30
2022-09-13T04:32:25.626Z,5.82
2022-09-13T04:34:53.168Z,5.85
2022-09-13T04:37:21.160Z,6.90
2022-09-13T04:39:49.129Z,6.35
2022-09-13T04:42:16.626Z,5.95
2022-09-13T04:44:44.866Z,5.10
2022-09-13T04:47:12.710Z,6.03
2022-09-13T04:49:40.448Z,5.28
2022-09-13T04:52:08.684Z,6.00
2022-09-13T04:54:37.956Z,5.70
2022-09-13T04:57:06.411Z,6.60
2022-09-13T04:59:34.057Z,6.93
2022-09-13T05:02:01.912Z,5.82
2022-09-13T05:04:29.389Z,6.05
2022-09-13T05:06:58.845Z,5.65
2022-09-13T05:09:27.412Z,6.57
2022-09-13T05:11:54.954Z,6.72
2022-09-13T05:14:22.501Z,5.80
2022-09-13T05:16:50.390Z,5.15
2022-09-13T05:19:18.113Z,5.55
2022-09-13T05:21:45.593Z,5.63
2022-09-13T05:24:13.542Z,4.45
2022-09-13T05:26:41.272Z,5.13
2022-09-13T05:29:09.074Z,5.07
2022-09-13T05:31:40.969Z,4.93
2022-09-13T05:34:15.082Z,4.95
2022-09-13T05:36:43.360Z,5.25
2022-09-13T05:42:06.008Z,4.63
2022-09-13T05:44:33.463Z,4.25
2022-09-13T05:47:01.035Z,4.32
2022-09-13T05:49:28.826Z,4.70
2022-09-13T05:51:56.297Z,4.53
2022-09-13T05:54:24.178Z,4.10
2022-09-13T05:56:52.850Z,4.53
2022-09-13T05:59:20.351Z,4.50
2022-09-13T06:01:48.705Z,4.53
2022-09-13T06:04:16.471Z,4.35
2022-09-13T06:06:44.003Z,3.97
2022-09-13T06:09:13.229Z,5.13
2022-09-13T06:11:41.187Z,5.28
2022-09-13T06:14:09.781Z,5.15
2022-09-13T06:16:37.421Z,4.67
2022-09-13T06:19:05.434Z,4.65
2022-09-13T06:21:33.058Z,5.35
2022-09-13T06:24:00.633Z,5.80
2022-09-13T06:26:28.935Z,4.57
2022-09-13T06:28:58.345Z,4.60
2022-09-13T06:31:28.890Z,5.03
2022-09-13T06:34:02.389Z,4.05
2022-09-13T06:36:31.386Z,3.85
2022-09-13T06:39:00.754Z,4.18
2022-09-13T06:41:28.447Z,4.03
2022-09-13T06:43:59.220Z,4.18
2022-09-13T06:46:30.473Z,4.30
2022-09-13T06:49:04.934Z,3.70
2022-09-13T06:51:34.856Z,3.42
2022-09-13T06:54:04.323Z,3.80
2022-09-13T06:59:08.579Z,3.40
2022-09-13T07:01:43.533Z,3.55
2022-09-13T07:04:15.946Z,3.33
2022-09-13T07:06:47.715Z,3.40
2022-09-13T07:09:22.182Z,2.47
2022-09-13T07:11:52.764Z,3.33
2022-09-13T07:14:27.148Z,3.00
2022-09-13T07:16:56.021Z,3.30
2022-09-13T07:19:26.856Z,3.55
2022-09-13T07:21:56.778Z,2.80
2022-09-13T07:24:26.178Z,3.47
2022-09-13T07:26:53.876Z,3.47
2022-09-13T07:29:24.009Z,2.47
2022-09-13T07:31:54.991Z,2.72
2022-09-13T07:34:26.339Z,2.15
2022-09-13T07:36:54.773Z,2.42
2022-09-13T07:39:23.292Z,1.90
2022-09-13T07:41:53.747Z,2.08
2022-09-13T07:44:22.776Z,2.75
2022-09-13T07:46:50.260Z,2.13
2022-09-13T07:49:19.037Z,2.72
2022-09-13T07:51:47.285Z,2.33
2022-09-13T07:54:18.040Z,2.17
2022-09-13T07:56:46.861Z,2.92
2022-09-13T07:59:17.270Z,2.35
2022-09-13T08:01:50.769Z,2.22
2022-09-13T08:04:25.790Z,2.40
2022-09-13T08:06:53.468Z,2.35
2022-09-13T08:09:21.213Z,2.15
2022-09-13T08:11:52.999Z,1.75
2022-09-13T08:14:23.456Z,1.73
2022-09-13T08:16:56.929Z,1.67
2022-09-13T08:19:24.790Z,1.42
2022-09-13T08:21:52.505Z,1.33
2022-09-13T08:24:21.744Z,0.82
2022-09-13T08:29:17.678Z,1.70
2022-09-13T08:31:45.641Z,1.23
2022-09-13T08:34:18.165Z,1.05
2022-09-13T08:36:45.992Z,1.33
2022-09-13T08:39:13.897Z,0.85
2022-09-13T08:41:48.034Z,0.68
2022-09-13T08:44:45.305Z,1.17
2022-09-13T08:47:55.651Z,1.30
2022-09-13T08:50:36.807Z,0.82
2022-09-13T08:53:22.772Z,1.63
2022-09-13T08:56:11.373Z,1.17
2022-09-13T08:59:24.774Z,0.90
2022-09-13T09:02:35.840Z,1.10
2022-09-13T09:05:25.581Z,0.75
2022-09-13T09:08:29.022Z,0.43
2022-09-13T09:11:01.815Z,0.90
2022-09-13T09:13:48.994Z,0.32
2022-09-13T09:16:53.555Z,0.50
2022-09-13T09:19:40.765Z,0.63
2022-09-13T09:22:22.001Z,0.45
2022-09-13T09:24:56.319Z,0.90
2022-09-13T09:27:24.685Z,0.90
2022-09-13T09:29:55.584Z,0.43
2022-09-13T09:33:03.753Z,0.77
2022-09-13T09:36:13.309Z,0.63
2022-09-13T09:38:43.897Z,0.45
2022-09-13T09:41:31.622Z,0.30
2022-09-13T09:44:27.602Z,0.85
2022-09-13T09:47:14.138Z,0.80
2022-09-13T09:50:12.392Z,0.30
2022-09-13T09:53:10.173Z,0.40
2022-09-13T09:55:50.500Z,0.15
2022-09-13T09:58:19.060Z,0.20
2022-09-13T10:00:55.481Z,0.30
2022-09-13T10:03:34.569Z,0.20
2022-09-13T10:06:11.953Z,0.15
2022-09-13T10:08:44.189Z,0.10
2022-09-13T10:11:12.233Z,0.03
2022-09-13T10:14:01.986Z,0.47
2022-09-13T10:16:31.775Z,0.10
2022-09-13T10:19:26.076Z,0.10
2022-09-13T10:22:11.399Z,0.20
2022-09-13T10:24:39.598Z,0.10
2022-09-13T10:27:36.514Z,0.45
2022-09-13T10:30:06.553Z,0.00
2022-09-13T10:32:34.617Z,0.10
2022-09-13T10:35:19.321Z,0.10
2022-09-13T10:37:47.313Z,0.10
2022-09-13T10:40:34.716Z,0.10
2022-09-13T10:43:08.022Z,0.40
2022-09-13T10:45:35.936Z,0.15
2022-09-13T10:48:06.344Z,0.75
2022-09-13T10:50:36.009Z,0.28
2022-09-13T10:53:05.735Z,0.10
2022-09-13T10:55:40.850Z,0.10
2022-09-13T10:58:08.299Z,0.10
2022-09-13T11:01:10.878Z,0.10
2022-09-13T11:04:22.918Z,0.20
2022-09-13T11:07:14.894Z,0.13
2022-09-13T11:10:13.677Z,0.52
2022-09-13T11:15:43.798Z,0.08
2022-09-13T11:18:44.424Z,0.10
2022-09-13T11:21:35.879Z,0.40
2022-09-13T11:24:26.965Z,0.17
2022-09-13T11:27:12.726Z,0.10
2022-09-13T11:30:12.835Z,0.10
2022-09-13T11:33:19.501Z,0.20
2022-09-13T11:35:58.774Z,0.35
2022-09-13T11:41:16.967Z,0.15
2022-09-13T11:44:11.620Z,0.20
2022-09-13T11:46:54.952Z,0.20
2022-09-13T11:50:00.810Z,0.20
2022-09-13T11:52:56.095Z,0.00
2022-09-13T11:55:47.163Z,0.10
2022-09-13T11:58:34.275Z,0.13
2022-09-13T12:01:08.208Z,0.20
2022-09-13T12:04:17.828Z,0.43
2022-09-13T12:06:53.854Z,0.20
2022-09-13T12:09:32.646Z,0.43
2022-09-13T12:12:04.637Z,0.10
2022-09-13T12:14:45.417Z,0.20
2022-09-13T12:17:42.901Z,0.10
2022-09-13T12:20:43.365Z,0.40
2022-09-13T12:23:25.332Z,0.00
2022-09-13T12:26:15.587Z,0.32
2022-09-13T12:28:52.846Z,0.03
2022-09-13T12:31:29.202Z,0.20
2022-09-13T12:33:57.231Z,0.10
2022-09-13T12:36:39.644Z,0.10
2022-09-13T12:39:45.183Z,0.10
2022-09-13T12:42:33.840Z,0.10
2022-09-13T12:45:19.894Z,0.10
2022-09-13T12:48:32.766Z,0.00
2022-09-13T12:51:43.274Z,0.30
2022-09-13T12:54:48.518Z,0.10
2022-09-13T12:57:54.784Z,0.38
2022-09-13T13:00:54.522Z,0.35
2022-09-13T13:03:31.457Z,0.20
2022-09-13T13:06:30.266Z,0.10
2022-09-13T13:09:19.055Z,0.10
2022-09-13T13:11:49.193Z,0.10
2022-09-13T13:14:39.382Z,0.20
2022-09-13T13:17:48.716Z,0.08
2022-09-13T13:20:48.329Z,0.40
2022-09-13T13:23:18.505Z,0.10
2022-09-13T13:26:42.159Z,0.20
2022-09-13T13:29:23.705Z,0.10
2022-09-13T13:32:04.388Z,0.10
2022-09-13T13:34:52.551Z,0.20
2022-09-13T13:37:32.438Z,0.10
2022-09-13T13:40:22.988Z,0.10
2022-09-13T13:42:51.065Z,0.20
2022-09-13T13:45:25.680Z,0.20
2022-09-13T13:48:14.099Z,0.17
2022-09-13T13:51:11.413Z,0.10
2022-09-13T13:53:42.446Z,0.05
2022-09-13T13:56:47.840Z,0.10
2022-09-13T13:59:25.853Z,0.30
2022-09-13T14:01:59.570Z,0.30
2022-09-13T14:05:44.653Z,0.13
2022-09-13T14:08:31.152Z,0.10
2022-09-13T14:11:01.295Z,0.20
2022-09-13T14:13:37.372Z,0.40
2022-09-13T14:16:47.790Z,0.30
2022-09-13T14:19:32.273Z,0.10
2022-09-13T14:22:19.806Z,0.13
2022-09-13T14:24:56.816Z,0.10
2022-09-13T14:27:33.914Z,0.20
2022-09-13T14:30:27.125Z,0.30
2022-09-13T14:32:57.505Z,0.20
2022-09-13T14:35:27.172Z,0.75
2022-09-13T14:37:57.036Z,0.45
2022-09-13T14:40:27.897Z,0.52
2022-09-13T14:42:56.717Z,1.08
2022-09-13T14:45:38.013Z,1.25
2022-09-13T14:48:46.602Z,4.18
2022-09-13T14:55:05.740Z,7.78
2022-09-13T14:57:39.795Z,0.20
2022-09-13T15:00:21.318Z,0.40
2022-09-13T15:03:11.853Z,0.28
2022-09-13T15:05:40.884Z,0.90
2022-09-13T15:08:45.039Z,0.13
2022-09-13T15:11:37.773Z,0.20
2022-09-13T15:14:31.122Z,0.43
2022-09-13T15:17:11.632Z,0.20
2022-09-13T15:19:52.477Z,0.20
2022-09-13T15:22:26.379Z,0.25
2022-09-13T15:24:58.125Z,0.30
2022-09-13T15:27:47.624Z,0.70
2022-09-13T15:30:31.020Z,0.32
2022-09-13T15:33:12.739Z,0.30
2022-09-13T15:35:46.319Z,0.30
2022-09-13T15:38:31.999Z,0.25
2022-09-13T15:41:13.025Z,0.45
2022-09-13T15:43:40.780Z,0.60
2022-09-13T15:46:15.211Z,0.40
2022-09-13T15:48:56.226Z,0.30
2022-09-13T15:51:24.562Z,0.90
2022-09-13T15:53:52.939Z,0.88
2022-09-13T15:56:32.550Z,0.55
2022-09-13T15:59:00.595Z,0.50
2022-09-13T16:01:28.067Z,0.95
2022-09-13T16:03:55.637Z,0.60
2022-09-13T16:06:24.842Z,0.82
2022-09-13T16:08:52.458Z,0.88
2022-09-13T16:11:22.681Z,0.75
2022-09-13T16:13:50.667Z,0.40
2022-09-13T16:16:18.173Z,0.68
2022-09-13T16:18:46.095Z,0.73
2022-09-13T16:21:13.931Z,1.05
2022-09-13T16:23:41.474Z,0.55
2022-09-13T16:26:10.579Z,0.75
2022-09-13T16:28:38.532Z,1.42
2022-09-13T16:31:06.342Z,1.55
2022-09-13T16:33:34.745Z,1.73
2022-09-13T16:36:02.896Z,1.75
2022-09-13T16:38:30.480Z,1.37
2022-09-13T16:40:57.953Z,1.35
2022-09-13T16:43:25.844Z,1.77
2022-09-13T16:45:53.487Z,2.08
2022-09-13T16:48:21.132Z,2.10
2022-09-13T16:50:52.318Z,3.13
2022-09-13T16:53:19.898Z,3.03
2022-09-13T16:55:47.410Z,2.45
2022-09-13T16:58:15.229Z,2.60
2022-09-13T17:00:44.151Z,2.60
2022-09-13T17:05:39.467Z,3.00
2022-09-13T17:08:07.425Z,2.80
2022-09-13T17:10:37.719Z,3.40
2022-09-13T17:13:05.605Z,1.70
2022-09-13T17:15:33.071Z,1.92
2022-09-13T17:18:01.456Z,1.80
2022-09-13T17:20:29.229Z,3.22
2022-09-13T17:22:57.895Z,1.65
2022-09-13T17:25:25.573Z,1.42
2022-09-13T17:27:53.376Z,1.77
2022-09-13T17:30:20.999Z,1.65
2022-09-13T17:32:48.578Z,2.10
2022-09-13T17:35:16.557Z,0.85
2022-09-13T17:37:44.164Z,0.70
2022-09-13T17:40:11.900Z,3.13
2022-09-13T17:42:39.703Z,1.33
2022-09-13T17:45:07.759Z,1.08
2022-09-13T17:47:35.244Z,1.13
2022-09-13T17:50:03.109Z,1.55
2022-09-13T17:52:34.221Z,0.98
2022-09-13T17:55:03.560Z,1.88
2022-09-13T17:57:31.782Z,1.60
2022-09-13T17:59:59.511Z,1.02
2022-09-13T18:02:27.989Z,1.50
2022-09-13T18:04:55.826Z,1.85
2022-09-13T18:07:23.466Z,1.13
2022-09-13T18:09:51.112Z,1.98
2022-09-13T18:12:18.873Z,1.27
2022-09-13T18:14:46.494Z,0.80
2022-09-13T18:17:14.066Z,1.00
2022-09-13T18:19:47.025Z,1.30
2022-09-13T18:22:15.362Z,1.63
2022-09-13T18:24:43.590Z,1.92
2022-09-13T18:27:11.106Z,1.80
2022-09-13T18:29:38.590Z,1.52
2022-09-13T18:32:06.743Z,1.20
2022-09-13T18:34:34.268Z,2.42
2022-09-13T18:37:01.903Z,1.70
2022-09-13T18:39:30.022Z,2.13
2022-09-13T18:41:57.560Z,1.88
2022-09-13T18:44:25.152Z,1.80
2022-09-13T18:46:54.222Z,2.08
2022-09-13T18:49:22.138Z,1.98
2022-09-13T18:51:49.790Z,1.52
2022-09-13T18:54:18.907Z,1.80
2022-09-13T18:59:15.546Z,2.43
2022-09-13T19:01:45.290Z,4.25
2022-09-13T19:04:17.367Z,2.35
2022-09-13T19:06:55.821Z,1.88
2022-09-13T19:09:24.512Z,2.17
2022-09-13T19:11:54.437Z,2.17
2022-09-13T19:14:28.612Z,1.88
2022-09-13T19:17:03.210Z,1.83
2022-09-13T19:19:31.900Z,2.08
2022-09-13T19:21:59.666Z,1.55
2022-09-13T19:24:27.300Z,1.13
2022-09-13T19:26:54.856Z,0.85
2022-09-13T19:29:23.470Z,0.47
2022-09-13T19:31:53.242Z,0.73
2022-09-13T19:34:22.905Z,0.70
2022-09-13T19:36:57.946Z,0.47
2022-09-13T19:39:29.973Z,1.05
2022-09-13T19:42:00.516Z,0.80
2022-09-13T19:44:28.977Z,1.70
2022-09-13T19:47:36.351Z,1.13
2022-09-13T19:49:46.137Z,1.05
2022-09-13T19:52:13.656Z,0.90
2022-09-13T19:54:41.181Z,1.17
2022-09-13T19:57:09.941Z,1.45
2022-09-13T19:59:37.464Z,1.20
2022-09-13T20:02:05.254Z,1.13
2022-09-13T20:04:33.696Z,1.10
2022-09-13T20:07:01.202Z,1.50
2022-09-13T20:09:30.498Z,1.40
2022-09-13T20:12:00.673Z,1.35
2022-09-13T20:14:28.623Z,0.57
2022-09-13T20:16:56.342Z,1.17
2022-09-13T20:19:40.138Z,1.23
2022-09-13T20:22:11.457Z,0.68
2022-09-13T20:24:39.711Z,0.57
2022-09-13T20:27:07.285Z,0.70
2022-09-13T20:29:34.875Z,0.73
2022-09-13T20:32:03.273Z,1.23
2022-09-13T20:34:31.150Z,0.95
2022-09-13T20:36:59.940Z,0.93
2022-09-13T20:39:29.557Z,0.70
2022-09-13T20:41:57.490Z,0.77
2022-09-13T20:44:25.177Z,0.73
2022-09-13T20:46:53.087Z,0.60
2022-09-13T20:49:21.959Z,0.77
2022-09-13T20:51:54.177Z,0.40
2022-09-13T20:54:23.984Z,1.15
2022-09-13T21:01:30.048Z,0.70
2022-09-13T21:03:59.507Z,0.73
2022-09-13T21:06:30.562Z,1.30
2022-09-13T21:09:00.294Z,0.98
2022-09-13T21:11:33.983Z,1.00
2022-09-13T21:14:08.514Z,0.98
2022-09-13T21:16:41.384Z,1.92
2022-09-13T21:19:09.534Z,1.88
2022-09-13T21:21:41.997Z,1.35
2022-09-13T21:24:13.329Z,2.13
2022-09-13T21:26:44.461Z,2.00
2022-09-13T21:29:12.825Z,1.40
2022-09-13T21:31:40.956Z,1.77
2022-09-13T21:34:14.730Z,1.70
2022-09-13T21:36:44.478Z,1.58
2022-09-13T21:39:13.639Z,1.83
2022-09-13T21:41:41.920Z,1.58
2022-09-13T21:44:10.393Z,1.58
2022-09-13T21:46:40.044Z,2.03
2022-09-13T21:49:13.119Z,1.65
2022-09-13T21:51:46.788Z,1.52
2022-09-13T21:54:18.416Z,1.70
2022-09-13T21:56:53.486Z,1.58
2022-09-13T21:59:22.970Z,1.52
2022-09-13T22:01:53.020Z,1.77
2022-09-13T22:04:25.454Z,1.90
2022-09-13T22:06:54.495Z,2.10
2022-09-13T22:09:27.306Z,2.00
2022-09-13T22:11:56.739Z,1.90
2022-09-13T22:14:24.713Z,1.42
2022-09-13T22:16:53.369Z,1.83
2022-09-13T22:19:26.986Z,2.10
2022-09-13T22:21:59.316Z,1.30
2022-09-13T22:24:32.043Z,1.48
2022-09-13T22:27:00.212Z,1.20
2022-09-13T22:29:28.509Z,1.60
2022-09-13T22:31:56.122Z,1.73
2022-09-13T22:34:25.673Z,1.90
2022-09-13T22:36:56.658Z,1.90
2022-09-13T22:39:24.338Z,2.10
2022-09-13T22:41:52.494Z,2.20
2022-09-13T22:44:20.277Z,1.83
2022-09-13T22:46:48.259Z,1.50
2022-09-13T22:49:19.002Z,1.98
2022-09-13T22:51:48.389Z,2.08
2022-09-13T22:54:17.539Z,2.13
2022-09-13T22:59:20.978Z,2.07
2022-09-13T23:01:49.312Z,1.88
2022-09-13T23:04:17.753Z,1.60
2022-09-13T23:06:45.812Z,1.98
2022-09-13T23:09:18.145Z,2.00
2022-09-13T23:11:47.045Z,1.70
2022-09-13T23:14:17.495Z,1.70
2022-09-13T23:16:50.442Z,1.65
2022-09-13T23:19:21.898Z,1.95
2022-09-13T23:21:52.036Z,1.77
2022-09-13T23:24:19.925Z,2.00
2022-09-13T23:26:48.192Z,1.42
2022-09-13T23:29:18.943Z,1.77
2022-09-13T23:31:48.095Z,1.88
2022-09-13T23:34:17.715Z,1.48
2022-09-13T23:36:46.551Z,1.33
2022-09-13T23:39:20.020Z,2.15
2022-09-13T23:41:49.401Z,1.70
2022-09-13T23:44:18.314Z,1.75
2022-09-13T23:46:46.016Z,2.00
2022-09-13T23:49:13.627Z,1.60
2022-09-13T23:51:42.116Z,1.65
2022-09-13T23:54:11.937Z,1.98
2022-09-13T23:56:39.632Z,1.52
2022-09-13T23:59:07.620Z,2.03
